sensor_id;sensor_type;location;lat;lon;timestamp;P1;durP1;ratioP1;P2;durP2;ratioP2
57217;SDS011;43078;52.972;6.482;2023-07-30T00:02:15;8.13;;;2.90;;
57217;SDS011;43078;52.972;6.482;2023-07-30T00:04:41;10.18;;;3.63;;
57217;SDS011;43078;52.972;6.482;2023-07-30T00:07:07;9.20;;;3.28;;
57217;SDS011;43078;52.972;6.482;2023-07-30T00:09:32;7.60;;;3.25;;
57217;SDS011;43078;52.972;6.482;2023-07-30T00:11:58;7.78;;;3.28;;
57217;SDS011;43078;52.972;6.482;2023-07-30T00:14:23;10.60;;;3.38;;
57217;SDS011;43078;52.972;6.482;2023-07-30T00:16:49;8.93;;;3.30;;
57217;SDS011;43078;52.972;6.482;2023-07-30T00:19:15;10.38;;;3.35;;
57217;SDS011;43078;52.972;6.482;2023-07-30T00:21:40;7.85;;;3.20;;
57217;SDS011;43078;52.972;6.482;2023-07-30T00:24:08;11.40;;;4.10;;
57217;SDS011;43078;52.972;6.482;2023-07-30T00:26:34;9.65;;;3.60;;
57217;SDS011;43078;52.972;6.482;2023-07-30T00:28:59;10.30;;;3.50;;
57217;SDS011;43078;52.972;6.482;2023-07-30T00:31:25;10.00;;;3.35;;
57217;SDS011;43078;52.972;6.482;2023-07-30T00:33:51;9.65;;;3.72;;
57217;SDS011;43078;52.972;6.482;2023-07-30T00:36:16;9.25;;;3.65;;
57217;SDS011;43078;52.972;6.482;2023-07-30T00:38:42;10.27;;;3.35;;
57217;SDS011;43078;52.972;6.482;2023-07-30T00:41:07;7.32;;;3.45;;
57217;SDS011;43078;52.972;6.482;2023-07-30T00:43:33;9.07;;;3.45;;
57217;SDS011;43078;52.972;6.482;2023-07-30T00:45:59;7.45;;;3.33;;
57217;SDS011;43078;52.972;6.482;2023-07-30T00:48:24;9.90;;;3.40;;
57217;SDS011;43078;52.972;6.482;2023-07-30T00:50:50;12.00;;;3.13;;
57217;SDS011;43078;52.972;6.482;2023-07-30T00:53:16;9.20;;;3.30;;
57217;SDS011;43078;52.972;6.482;2023-07-30T00:55:43;9.32;;;3.13;;
57217;SDS011;43078;52.972;6.482;2023-07-30T00:58:09;8.48;;;3.65;;
57217;SDS011;43078;52.972;6.482;2023-07-30T01:00:36;8.93;;;3.35;;
57217;SDS011;43078;52.972;6.482;2023-07-30T01:03:01;8.88;;;3.30;;
57217;SDS011;43078;52.972;6.482;2023-07-30T01:05:28;9.25;;;3.30;;
57217;SDS011;43078;52.972;6.482;2023-07-30T01:07:53;14.50;;;3.83;;
57217;SDS011;43078;52.972;6.482;2023-07-30T01:10:19;13.15;;;4.10;;
57217;SDS011;43078;52.972;6.482;2023-07-30T01:12:46;11.80;;;4.15;;
57217;SDS011;43078;52.972;6.482;2023-07-30T01:15:12;11.48;;;3.88;;
57217;SDS011;43078;52.972;6.482;2023-07-30T01:17:38;11.55;;;4.00;;
57217;SDS011;43078;52.972;6.482;2023-07-30T01:20:04;11.27;;;4.50;;
57217;SDS011;43078;52.972;6.482;2023-07-30T01:22:30;10.82;;;3.88;;
57217;SDS011;43078;52.972;6.482;2023-07-30T01:24:56;9.32;;;3.65;;
57217;SDS011;43078;52.972;6.482;2023-07-30T01:27:23;16.33;;;4.85;;
57217;SDS011;43078;52.972;6.482;2023-07-30T01:30:17;11.52;;;3.85;;
57217;SDS011;43078;52.972;6.482;2023-07-30T01:32:39;13.10;;;4.22;;
57217;SDS011;43078;52.972;6.482;2023-07-30T01:35:07;11.65;;;4.40;;
57217;SDS011;43078;52.972;6.482;2023-07-30T01:37:33;12.75;;;4.03;;
57217;SDS011;43078;52.972;6.482;2023-07-30T01:39:59;12.45;;;4.20;;
57217;SDS011;43078;52.972;6.482;2023-07-30T01:42:29;11.27;;;4.15;;
57217;SDS011;43078;52.972;6.482;2023-07-30T01:44:55;10.73;;;4.10;;
57217;SDS011;43078;52.972;6.482;2023-07-30T01:47:21;11.52;;;4.45;;
57217;SDS011;43078;52.972;6.482;2023-07-30T01:49:46;13.77;;;4.60;;
57217;SDS011;43078;52.972;6.482;2023-07-30T01:52:12;10.88;;;4.25;;
57217;SDS011;43078;52.972;6.482;2023-07-30T01:54:37;11.88;;;4.85;;
57217;SDS011;43078;52.972;6.482;2023-07-30T01:57:03;13.40;;;4.43;;
57217;SDS011;43078;52.972;6.482;2023-07-30T01:59:29;13.10;;;4.60;;
57217;SDS011;43078;52.972;6.482;2023-07-30T02:01:54;13.27;;;4.70;;
57217;SDS011;43078;52.972;6.482;2023-07-30T02:04:20;12.10;;;4.25;;
57217;SDS011;43078;52.972;6.482;2023-07-30T02:06:46;11.60;;;4.28;;
57217;SDS011;43078;52.972;6.482;2023-07-30T02:09:11;11.52;;;4.57;;
57217;SDS011;43078;52.972;6.482;2023-07-30T02:11:37;9.68;;;3.75;;
57217;SDS011;43078;52.972;6.482;2023-07-30T02:14:02;14.38;;;4.38;;
57217;SDS011;43078;52.972;6.482;2023-07-30T02:16:28;10.65;;;3.80;;
57217;SDS011;43078;52.972;6.482;2023-07-30T02:18:54;10.93;;;3.88;;
57217;SDS011;43078;52.972;6.482;2023-07-30T02:21:19;11.13;;;4.15;;
57217;SDS011;43078;52.972;6.482;2023-07-30T02:23:45;10.88;;;3.67;;
57217;SDS011;43078;52.972;6.482;2023-07-30T02:26:10;10.23;;;3.75;;
57217;SDS011;43078;52.972;6.482;2023-07-30T02:28:36;13.93;;;4.30;;
57217;SDS011;43078;52.972;6.482;2023-07-30T02:31:01;9.98;;;3.60;;
57217;SDS011;43078;52.972;6.482;2023-07-30T02:33:27;12.70;;;3.90;;
57217;SDS011;43078;52.972;6.482;2023-07-30T02:35:53;12.45;;;3.85;;
57217;SDS011;43078;52.972;6.482;2023-07-30T02:38:18;9.95;;;3.30;;
57217;SDS011;43078;52.972;6.482;2023-07-30T02:40:44;11.48;;;3.88;;
57217;SDS011;43078;52.972;6.482;2023-07-30T02:43:09;9.73;;;3.47;;
57217;SDS011;43078;52.972;6.482;2023-07-30T02:45:35;9.32;;;3.63;;
57217;SDS011;43078;52.972;6.482;2023-07-30T02:48:00;8.75;;;3.20;;
57217;SDS011;43078;52.972;6.482;2023-07-30T02:50:26;11.50;;;3.65;;
57217;SDS011;43078;52.972;6.482;2023-07-30T02:52:52;11.52;;;3.70;;
57217;SDS011;43078;52.972;6.482;2023-07-30T02:55:17;12.55;;;3.85;;
57217;SDS011;43078;52.972;6.482;2023-07-30T02:57:43;10.57;;;3.50;;
57217;SDS011;43078;52.972;6.482;2023-07-30T03:00:09;13.77;;;3.50;;
57217;SDS011;43078;52.972;6.482;2023-07-30T03:02:35;12.32;;;3.80;;
57217;SDS011;43078;52.972;6.482;2023-07-30T03:05:01;9.13;;;3.38;;
57217;SDS011;43078;52.972;6.482;2023-07-30T03:07:27;9.55;;;3.22;;
57217;SDS011;43078;52.972;6.482;2023-07-30T03:09:53;8.70;;;3.22;;
57217;SDS011;43078;52.972;6.482;2023-07-30T03:12:18;12.77;;;3.33;;
57217;SDS011;43078;52.972;6.482;2023-07-30T03:14:44;12.02;;;3.47;;
57217;SDS011;43078;52.972;6.482;2023-07-30T03:17:10;12.52;;;3.25;;
57217;SDS011;43078;52.972;6.482;2023-07-30T03:19:35;9.07;;;2.80;;
57217;SDS011;43078;52.972;6.482;2023-07-30T03:22:01;10.43;;;2.83;;
57217;SDS011;43078;52.972;6.482;2023-07-30T03:24:26;8.50;;;2.90;;
57217;SDS011;43078;52.972;6.482;2023-07-30T03:26:52;10.45;;;3.22;;
57217;SDS011;43078;52.972;6.482;2023-07-30T03:29:17;8.68;;;2.97;;
57217;SDS011;43078;52.972;6.482;2023-07-30T03:31:43;7.90;;;2.80;;
57217;SDS011;43078;52.972;6.482;2023-07-30T03:34:09;11.85;;;3.40;;
57217;SDS011;43078;52.972;6.482;2023-07-30T03:36:34;9.45;;;2.72;;
57217;SDS011;43078;52.972;6.482;2023-07-30T03:39:00;11.05;;;2.90;;
57217;SDS011;43078;52.972;6.482;2023-07-30T03:41:25;8.90;;;2.70;;
57217;SDS011;43078;52.972;6.482;2023-07-30T03:43:51;9.90;;;2.95;;
57217;SDS011;43078;52.972;6.482;2023-07-30T03:46:17;9.93;;;2.95;;
57217;SDS011;43078;52.972;6.482;2023-07-30T03:48:42;10.52;;;2.83;;
57217;SDS011;43078;52.972;6.482;2023-07-30T03:51:08;7.65;;;2.70;;
57217;SDS011;43078;52.972;6.482;2023-07-30T03:53:34;10.00;;;2.80;;
57217;SDS011;43078;52.972;6.482;2023-07-30T03:55:59;7.60;;;2.63;;
57217;SDS011;43078;52.972;6.482;2023-07-30T03:58:25;8.70;;;2.90;;
57217;SDS011;43078;52.972;6.482;2023-07-30T04:00:51;8.25;;;2.55;;
57217;SDS011;43078;52.972;6.482;2023-07-30T04:03:17;10.13;;;2.50;;
57217;SDS011;43078;52.972;6.482;2023-07-30T04:05:42;9.15;;;2.38;;
57217;SDS011;43078;52.972;6.482;2023-07-30T04:08:08;7.85;;;2.72;;
57217;SDS011;43078;52.972;6.482;2023-07-30T04:10:33;8.35;;;2.58;;
57217;SDS011;43078;52.972;6.482;2023-07-30T04:12:59;8.63;;;2.63;;
57217;SDS011;43078;52.972;6.482;2023-07-30T04:15:25;10.55;;;2.85;;
57217;SDS011;43078;52.972;6.482;2023-07-30T04:17:50;10.25;;;2.50;;
57217;SDS011;43078;52.972;6.482;2023-07-30T04:20:16;8.55;;;2.45;;
57217;SDS011;43078;52.972;6.482;2023-07-30T04:22:43;8.43;;;2.30;;
57217;SDS011;43078;52.972;6.482;2023-07-30T04:25:08;8.02;;;2.53;;
57217;SDS011;43078;52.972;6.482;2023-07-30T04:27:36;10.45;;;2.92;;
57217;SDS011;43078;52.972;6.482;2023-07-30T04:30:02;8.82;;;2.55;;
57217;SDS011;43078;52.972;6.482;2023-07-30T04:32:28;10.73;;;2.42;;
57217;SDS011;43078;52.972;6.482;2023-07-30T04:34:54;10.05;;;2.70;;
57217;SDS011;43078;52.972;6.482;2023-07-30T04:37:20;8.50;;;2.65;;
57217;SDS011;43078;52.972;6.482;2023-07-30T04:39:45;14.60;;;3.00;;
57217;SDS011;43078;52.972;6.482;2023-07-30T04:42:11;7.80;;;2.08;;
57217;SDS011;43078;52.972;6.482;2023-07-30T04:44:38;5.75;;;2.05;;
57217;SDS011;43078;52.972;6.482;2023-07-30T04:47:03;8.02;;;2.38;;
57217;SDS011;43078;52.972;6.482;2023-07-30T04:49:29;7.55;;;2.20;;
57217;SDS011;43078;52.972;6.482;2023-07-30T04:51:55;7.63;;;2.75;;
57217;SDS011;43078;52.972;6.482;2023-07-30T04:54:21;13.32;;;3.42;;
57217;SDS011;43078;52.972;6.482;2023-07-30T04:56:46;10.15;;;2.83;;
57217;SDS011;43078;52.972;6.482;2023-07-30T04:59:12;11.55;;;2.60;;
57217;SDS011;43078;52.972;6.482;2023-07-30T05:01:37;10.90;;;3.17;;
57217;SDS011;43078;52.972;6.482;2023-07-30T05:04:03;11.98;;;3.17;;
57217;SDS011;43078;52.972;6.482;2023-07-30T05:06:29;10.65;;;2.70;;
57217;SDS011;43078;52.972;6.482;2023-07-30T05:08:54;7.40;;;2.28;;
57217;SDS011;43078;52.972;6.482;2023-07-30T05:11:20;8.98;;;2.30;;
57217;SDS011;43078;52.972;6.482;2023-07-30T05:13:45;9.50;;;2.78;;
57217;SDS011;43078;52.972;6.482;2023-07-30T05:16:11;10.43;;;2.80;;
57217;SDS011;43078;52.972;6.482;2023-07-30T05:18:37;8.30;;;2.75;;
57217;SDS011;43078;52.972;6.482;2023-07-30T05:21:02;8.77;;;2.65;;
57217;SDS011;43078;52.972;6.482;2023-07-30T05:23:28;9.38;;;2.72;;
57217;SDS011;43078;52.972;6.482;2023-07-30T05:25:53;9.45;;;2.78;;
57217;SDS011;43078;52.972;6.482;2023-07-30T05:28:19;15.20;;;3.42;;
57217;SDS011;43078;52.972;6.482;2023-07-30T05:30:45;10.00;;;2.88;;
57217;SDS011;43078;52.972;6.482;2023-07-30T05:33:10;10.38;;;3.10;;
57217;SDS011;43078;52.972;6.482;2023-07-30T05:35:36;11.48;;;2.97;;
57217;SDS011;43078;52.972;6.482;2023-07-30T05:38:01;11.23;;;3.00;;
57217;SDS011;43078;52.972;6.482;2023-07-30T05:40:27;13.88;;;3.22;;
57217;SDS011;43078;52.972;6.482;2023-07-30T05:42:53;9.60;;;3.08;;
57217;SDS011;43078;52.972;6.482;2023-07-30T05:45:18;11.98;;;3.15;;
57217;SDS011;43078;52.972;6.482;2023-07-30T05:47:44;12.00;;;3.33;;
57217;SDS011;43078;52.972;6.482;2023-07-30T05:50:09;17.58;;;4.32;;
57217;SDS011;43078;52.972;6.482;2023-07-30T05:52:35;11.55;;;3.40;;
57217;SDS011;43078;52.972;6.482;2023-07-30T05:55:01;15.90;;;3.47;;
57217;SDS011;43078;52.972;6.482;2023-07-30T05:57:26;12.88;;;3.00;;
57217;SDS011;43078;52.972;6.482;2023-07-30T05:59:52;12.85;;;3.00;;
57217;SDS011;43078;52.972;6.482;2023-07-30T06:02:17;8.75;;;2.80;;
57217;SDS011;43078;52.972;6.482;2023-07-30T06:04:43;11.82;;;3.47;;
57217;SDS011;43078;52.972;6.482;2023-07-30T06:07:09;16.10;;;3.45;;
57217;SDS011;43078;52.972;6.482;2023-07-30T06:09:35;15.70;;;3.38;;
57217;SDS011;43078;52.972;6.482;2023-07-30T06:12:02;11.70;;;3.13;;
57217;SDS011;43078;52.972;6.482;2023-07-30T06:14:28;16.30;;;3.78;;
57217;SDS011;43078;52.972;6.482;2023-07-30T06:16:54;13.20;;;3.65;;
57217;SDS011;43078;52.972;6.482;2023-07-30T06:19:19;17.38;;;3.70;;
57217;SDS011;43078;52.972;6.482;2023-07-30T06:21:45;14.88;;;3.80;;
57217;SDS011;43078;52.972;6.482;2023-07-30T06:24:11;15.25;;;3.38;;
57217;SDS011;43078;52.972;6.482;2023-07-30T06:26:37;13.00;;;3.22;;
57217;SDS011;43078;52.972;6.482;2023-07-30T06:29:03;13.98;;;3.60;;
57217;SDS011;43078;52.972;6.482;2023-07-30T06:31:28;11.73;;;3.28;;
57217;SDS011;43078;52.972;6.482;2023-07-30T06:33:54;15.13;;;3.80;;
57217;SDS011;43078;52.972;6.482;2023-07-30T06:36:20;15.07;;;3.70;;
57217;SDS011;43078;52.972;6.482;2023-07-30T06:38:46;15.13;;;4.40;;
57217;SDS011;43078;52.972;6.482;2023-07-30T06:41:11;16.77;;;3.75;;
57217;SDS011;43078;52.972;6.482;2023-07-30T06:43:37;13.93;;;3.40;;
57217;SDS011;43078;52.972;6.482;2023-07-30T06:46:03;19.48;;;4.22;;
57217;SDS011;43078;52.972;6.482;2023-07-30T06:48:28;14.98;;;3.67;;
57217;SDS011;43078;52.972;6.482;2023-07-30T06:50:54;14.55;;;3.63;;
57217;SDS011;43078;52.972;6.482;2023-07-30T06:53:20;13.98;;;3.70;;
57217;SDS011;43078;52.972;6.482;2023-07-30T06:55:45;18.40;;;4.20;;
57217;SDS011;43078;52.972;6.482;2023-07-30T06:58:11;18.40;;;4.28;;
57217;SDS011;43078;52.972;6.482;2023-07-30T07:00:36;13.88;;;3.75;;
57217;SDS011;43078;52.972;6.482;2023-07-30T07:03:02;11.27;;;3.17;;
57217;SDS011;43078;52.972;6.482;2023-07-30T07:05:28;17.85;;;4.07;;
57217;SDS011;43078;52.972;6.482;2023-07-30T07:07:54;16.33;;;3.92;;
57217;SDS011;43078;52.972;6.482;2023-07-30T07:10:20;13.85;;;3.60;;
57217;SDS011;43078;52.972;6.482;2023-07-30T07:12:46;16.23;;;3.90;;
57217;SDS011;43078;52.972;6.482;2023-07-30T07:15:12;14.50;;;3.75;;
57217;SDS011;43078;52.972;6.482;2023-07-30T07:17:41;11.98;;;3.20;;
57217;SDS011;43078;52.972;6.482;2023-07-30T07:20:06;16.15;;;3.60;;
57217;SDS011;43078;52.972;6.482;2023-07-30T07:22:33;15.40;;;3.45;;
57217;SDS011;43078;52.972;6.482;2023-07-30T07:24:59;13.93;;;3.22;;
57217;SDS011;43078;52.972;6.482;2023-07-30T07:27:25;13.10;;;3.35;;
57217;SDS011;43078;52.972;6.482;2023-07-30T07:29:51;16.35;;;3.58;;
57217;SDS011;43078;52.972;6.482;2023-07-30T07:32:17;16.38;;;3.72;;
57217;SDS011;43078;52.972;6.482;2023-07-30T07:34:47;17.88;;;3.28;;
57217;SDS011;43078;52.972;6.482;2023-07-30T07:37:13;15.82;;;3.17;;
57217;SDS011;43078;52.972;6.482;2023-07-30T07:39:43;12.70;;;3.10;;
57217;SDS011;43078;52.972;6.482;2023-07-30T07:42:09;17.70;;;3.42;;
57217;SDS011;43078;52.972;6.482;2023-07-30T07:44:35;13.52;;;3.28;;
57217;SDS011;43078;52.972;6.482;2023-07-30T07:47:04;12.65;;;3.10;;
57217;SDS011;43078;52.972;6.482;2023-07-30T07:49:29;17.65;;;3.50;;
57217;SDS011;43078;52.972;6.482;2023-07-30T07:51:55;15.10;;;2.85;;
57217;SDS011;43078;52.972;6.482;2023-07-30T07:54:21;17.52;;;3.10;;
57217;SDS011;43078;52.972;6.482;2023-07-30T07:56:46;18.83;;;3.78;;
57217;SDS011;43078;52.972;6.482;2023-07-30T07:59:12;13.35;;;3.13;;
57217;SDS011;43078;52.972;6.482;2023-07-30T08:01:38;15.95;;;3.70;;
57217;SDS011;43078;52.972;6.482;2023-07-30T08:04:03;18.90;;;3.47;;
57217;SDS011;43078;52.972;6.482;2023-07-30T08:06:35;20.15;;;2.80;;
57217;SDS011;43078;52.972;6.482;2023-07-30T08:09:00;14.73;;;2.90;;
57217;SDS011;43078;52.972;6.482;2023-07-30T08:11:26;19.30;;;2.83;;
57217;SDS011;43078;52.972;6.482;2023-07-30T08:13:51;21.85;;;3.30;;
57217;SDS011;43078;52.972;6.482;2023-07-30T08:16:17;13.88;;;2.70;;
57217;SDS011;43078;52.972;6.482;2023-07-30T08:18:43;11.45;;;2.65;;
57217;SDS011;43078;52.972;6.482;2023-07-30T08:21:08;10.77;;;2.30;;
57217;SDS011;43078;52.972;6.482;2023-07-30T08:23:34;11.85;;;2.13;;
57217;SDS011;43078;52.972;6.482;2023-07-30T08:25:59;11.02;;;2.35;;
57217;SDS011;43078;52.972;6.482;2023-07-30T08:28:25;10.13;;;2.28;;
57217;SDS011;43078;52.972;6.482;2023-07-30T08:30:51;12.88;;;2.50;;
57217;SDS011;43078;52.972;6.482;2023-07-30T08:33:16;10.65;;;2.30;;
57217;SDS011;43078;52.972;6.482;2023-07-30T08:35:42;12.43;;;2.42;;
57217;SDS011;43078;52.972;6.482;2023-07-30T08:38:07;10.18;;;2.22;;
57217;SDS011;43078;52.972;6.482;2023-07-30T08:40:33;9.13;;;2.13;;
57217;SDS011;43078;52.972;6.482;2023-07-30T08:42:59;7.20;;;1.92;;
57217;SDS011;43078;52.972;6.482;2023-07-30T08:45:25;9.38;;;2.28;;
57217;SDS011;43078;52.972;6.482;2023-07-30T08:47:51;11.63;;;2.25;;
57217;SDS011;43078;52.972;6.482;2023-07-30T08:50:17;9.05;;;2.20;;
57217;SDS011;43078;52.972;6.482;2023-07-30T08:52:43;7.72;;;2.17;;
57217;SDS011;43078;52.972;6.482;2023-07-30T08:55:09;8.55;;;2.10;;
57217;SDS011;43078;52.972;6.482;2023-07-30T08:57:36;7.47;;;1.77;;
57217;SDS011;43078;52.972;6.482;2023-07-30T09:00:04;9.13;;;2.22;;
57217;SDS011;43078;52.972;6.482;2023-07-30T09:02:34;7.47;;;1.90;;
57217;SDS011;43078;52.972;6.482;2023-07-30T09:05:10;8.30;;;2.10;;
57217;SDS011;43078;52.972;6.482;2023-07-30T09:07:36;9.15;;;1.92;;
57217;SDS011;43078;52.972;6.482;2023-07-30T09:10:01;6.85;;;1.77;;
57217;SDS011;43078;52.972;6.482;2023-07-30T09:12:31;6.72;;;2.03;;
57217;SDS011;43078;52.972;6.482;2023-07-30T09:15:01;10.25;;;2.25;;
57217;SDS011;43078;52.972;6.482;2023-07-30T09:17:29;7.47;;;2.00;;
57217;SDS011;43078;52.972;6.482;2023-07-30T09:19:55;10.23;;;2.22;;
57217;SDS011;43078;52.972;6.482;2023-07-30T09:22:24;9.68;;;1.90;;
57217;SDS011;43078;52.972;6.482;2023-07-30T09:24:55;8.73;;;1.95;;
57217;SDS011;43078;52.972;6.482;2023-07-30T09:27:23;7.80;;;1.92;;
57217;SDS011;43078;52.972;6.482;2023-07-30T09:29:55;9.25;;;1.80;;
57217;SDS011;43078;52.972;6.482;2023-07-30T09:32:28;7.50;;;1.67;;
57217;SDS011;43078;52.972;6.482;2023-07-30T09:34:55;8.73;;;1.60;;
57217;SDS011;43078;52.972;6.482;2023-07-30T09:37:30;6.13;;;1.38;;
57217;SDS011;43078;52.972;6.482;2023-07-30T09:39:57;4.40;;;1.30;;
57217;SDS011;43078;52.972;6.482;2023-07-30T09:42:26;5.75;;;1.30;;
57217;SDS011;43078;52.972;6.482;2023-07-30T09:44:52;5.72;;;1.30;;
57217;SDS011;43078;52.972;6.482;2023-07-30T09:47:18;6.95;;;1.70;;
57217;SDS011;43078;52.972;6.482;2023-07-30T09:49:46;7.80;;;1.50;;
57217;SDS011;43078;52.972;6.482;2023-07-30T09:52:12;5.63;;;1.38;;
57217;SDS011;43078;52.972;6.482;2023-07-30T09:54:41;8.88;;;1.38;;
57217;SDS011;43078;52.972;6.482;2023-07-30T09:57:08;7.18;;;1.50;;
57217;SDS011;43078;52.972;6.482;2023-07-30T09:59:36;5.90;;;1.30;;
57217;SDS011;43078;52.972;6.482;2023-07-30T10:02:03;6.65;;;1.30;;
57217;SDS011;43078;52.972;6.482;2023-07-30T10:04:30;5.13;;;1.30;;
57217;SDS011;43078;52.972;6.482;2023-07-30T10:07:04;5.88;;;1.20;;
57217;SDS011;43078;52.972;6.482;2023-07-30T10:09:37;5.43;;;1.40;;
57217;SDS011;43078;52.972;6.482;2023-07-30T10:12:12;5.53;;;1.40;;
57217;SDS011;43078;52.972;6.482;2023-07-30T10:14:41;7.65;;;1.20;;
57217;SDS011;43078;52.972;6.482;2023-07-30T10:17:09;7.22;;;1.58;;
57217;SDS011;43078;52.972;6.482;2023-07-30T10:19:36;7.68;;;1.65;;
57217;SDS011;43078;52.972;6.482;2023-07-30T10:24:42;5.25;;;1.20;;
57217;SDS011;43078;52.972;6.482;2023-07-30T10:27:25;7.05;;;1.50;;
57217;SDS011;43078;52.972;6.482;2023-07-30T10:35:39;10.98;;;1.80;;
57217;SDS011;43078;52.972;6.482;2023-07-30T10:38:19;10.60;;;1.90;;
57217;SDS011;43078;52.972;6.482;2023-07-30T10:43:33;10.88;;;1.92;;
57217;SDS011;43078;52.972;6.482;2023-07-30T10:46:00;8.90;;;1.88;;
57217;SDS011;43078;52.972;6.482;2023-07-30T10:48:30;11.40;;;2.25;;
57217;SDS011;43078;52.972;6.482;2023-07-30T10:51:00;8.90;;;2.00;;
57217;SDS011;43078;52.972;6.482;2023-07-30T10:53:33;11.02;;;1.90;;
57217;SDS011;43078;52.972;6.482;2023-07-30T10:56:04;13.57;;;2.75;;
57217;SDS011;43078;52.972;6.482;2023-07-30T10:58:31;11.23;;;2.20;;
57217;SDS011;43078;52.972;6.482;2023-07-30T11:00:58;12.52;;;2.22;;
57217;SDS011;43078;52.972;6.482;2023-07-30T11:03:24;11.07;;;2.35;;
57217;SDS011;43078;52.972;6.482;2023-07-30T11:05:51;11.05;;;2.17;;
57217;SDS011;43078;52.972;6.482;2023-07-30T11:08:17;12.57;;;2.33;;
57217;SDS011;43078;52.972;6.482;2023-07-30T11:10:44;9.35;;;1.98;;
57217;SDS011;43078;52.972;6.482;2023-07-30T11:13:14;12.60;;;2.20;;
57217;SDS011;43078;52.972;6.482;2023-07-30T11:15:43;9.27;;;1.85;;
57217;SDS011;43078;52.972;6.482;2023-07-30T11:18:10;10.32;;;2.15;;
57217;SDS011;43078;52.972;6.482;2023-07-30T11:20:37;12.82;;;2.30;;
57217;SDS011;43078;52.972;6.482;2023-07-30T11:23:16;11.15;;;2.10;;
57217;SDS011;43078;52.972;6.482;2023-07-30T11:25:45;9.25;;;1.95;;
57217;SDS011;43078;52.972;6.482;2023-07-30T11:28:12;7.78;;;1.70;;
57217;SDS011;43078;52.972;6.482;2023-07-30T11:30:37;8.13;;;2.00;;
57217;SDS011;43078;52.972;6.482;2023-07-30T11:33:03;11.18;;;1.92;;
57217;SDS011;43078;52.972;6.482;2023-07-30T11:35:29;9.77;;;2.05;;
57217;SDS011;43078;52.972;6.482;2023-07-30T11:37:55;10.07;;;1.92;;
57217;SDS011;43078;52.972;6.482;2023-07-30T11:40:24;11.65;;;2.38;;
57217;SDS011;43078;52.972;6.482;2023-07-30T11:42:50;8.45;;;1.90;;
57217;SDS011;43078;52.972;6.482;2023-07-30T11:45:19;12.60;;;1.88;;
57217;SDS011;43078;52.972;6.482;2023-07-30T11:47:49;13.23;;;2.10;;
57217;SDS011;43078;52.972;6.482;2023-07-30T11:50:15;10.40;;;1.80;;
57217;SDS011;43078;52.972;6.482;2023-07-30T11:52:51;11.00;;;1.85;;
57217;SDS011;43078;52.972;6.482;2023-07-30T11:55:20;10.98;;;2.10;;
57217;SDS011;43078;52.972;6.482;2023-07-30T11:57:48;10.18;;;1.90;;
57217;SDS011;43078;52.972;6.482;2023-07-30T12:00:14;12.98;;;2.40;;
57217;SDS011;43078;52.972;6.482;2023-07-30T12:02:40;11.35;;;2.15;;
57217;SDS011;43078;52.972;6.482;2023-07-30T12:05:12;11.60;;;2.03;;
57217;SDS011;43078;52.972;6.482;2023-07-30T12:07:40;11.40;;;1.95;;
57217;SDS011;43078;52.972;6.482;2023-07-30T12:10:10;10.57;;;2.00;;
57217;SDS011;43078;52.972;6.482;2023-07-30T12:12:43;12.25;;;2.25;;
57217;SDS011;43078;52.972;6.482;2023-07-30T12:15:10;11.07;;;2.35;;
57217;SDS011;43078;52.972;6.482;2023-07-30T12:17:37;12.05;;;1.98;;
57217;SDS011;43078;52.972;6.482;2023-07-30T12:20:03;7.90;;;1.90;;
57217;SDS011;43078;52.972;6.482;2023-07-30T12:22:32;7.78;;;1.60;;
57217;SDS011;43078;52.972;6.482;2023-07-30T12:25:00;9.88;;;1.98;;
57217;SDS011;43078;52.972;6.482;2023-07-30T12:27:28;9.07;;;2.08;;
57217;SDS011;43078;52.972;6.482;2023-07-30T12:29:54;9.27;;;2.03;;
57217;SDS011;43078;52.972;6.482;2023-07-30T12:32:20;11.35;;;2.08;;
57217;SDS011;43078;52.972;6.482;2023-07-30T12:34:46;9.80;;;1.70;;
57217;SDS011;43078;52.972;6.482;2023-07-30T12:37:14;10.25;;;2.05;;
57217;SDS011;43078;52.972;6.482;2023-07-30T12:39:40;9.48;;;2.00;;
57217;SDS011;43078;52.972;6.482;2023-07-30T12:42:06;10.10;;;1.90;;
57217;SDS011;43078;52.972;6.482;2023-07-30T12:44:31;10.93;;;1.88;;
57217;SDS011;43078;52.972;6.482;2023-07-30T12:46:57;10.82;;;1.95;;
57217;SDS011;43078;52.972;6.482;2023-07-30T12:49:23;11.02;;;1.58;;
57217;SDS011;43078;52.972;6.482;2023-07-30T12:51:48;8.95;;;1.58;;
57217;SDS011;43078;52.972;6.482;2023-07-30T12:54:14;9.70;;;1.85;;
57217;SDS011;43078;52.972;6.482;2023-07-30T12:56:40;9.30;;;1.45;;
57217;SDS011;43078;52.972;6.482;2023-07-30T12:59:05;7.38;;;1.60;;
57217;SDS011;43078;52.972;6.482;2023-07-30T13:01:31;9.68;;;1.67;;
57217;SDS011;43078;52.972;6.482;2023-07-30T13:03:56;8.43;;;1.63;;
57217;SDS011;43078;52.972;6.482;2023-07-30T13:06:22;8.18;;;1.52;;
57217;SDS011;43078;52.972;6.482;2023-07-30T13:08:48;9.25;;;1.80;;
57217;SDS011;43078;52.972;6.482;2023-07-30T13:11:13;9.05;;;1.35;;
57217;SDS011;43078;52.972;6.482;2023-07-30T13:13:39;8.27;;;1.55;;
57217;SDS011;43078;52.972;6.482;2023-07-30T13:16:05;8.98;;;1.52;;
57217;SDS011;43078;52.972;6.482;2023-07-30T13:18:31;8.57;;;1.50;;
57217;SDS011;43078;52.972;6.482;2023-07-30T13:20:56;8.27;;;1.60;;
57217;SDS011;43078;52.972;6.482;2023-07-30T13:23:22;13.68;;;1.98;;
57217;SDS011;43078;52.972;6.482;2023-07-30T13:25:50;8.52;;;1.45;;
57217;SDS011;43078;52.972;6.482;2023-07-30T13:28:16;7.13;;;1.48;;
57217;SDS011;43078;52.972;6.482;2023-07-30T13:30:46;11.35;;;1.60;;
57217;SDS011;43078;52.972;6.482;2023-07-30T13:33:11;10.98;;;1.65;;
57217;SDS011;43078;52.972;6.482;2023-07-30T13:35:37;9.40;;;1.45;;
57217;SDS011;43078;52.972;6.482;2023-07-30T13:38:03;8.55;;;1.60;;
57217;SDS011;43078;52.972;6.482;2023-07-30T13:40:29;8.40;;;1.52;;
57217;SDS011;43078;52.972;6.482;2023-07-30T13:42:54;11.93;;;1.85;;
57217;SDS011;43078;52.972;6.482;2023-07-30T13:45:20;9.80;;;1.88;;
57217;SDS011;43078;52.972;6.482;2023-07-30T13:47:46;11.70;;;1.95;;
57217;SDS011;43078;52.972;6.482;2023-07-30T13:50:12;9.85;;;1.73;;
57217;SDS011;43078;52.972;6.482;2023-07-30T13:52:40;8.82;;;1.58;;
57217;SDS011;43078;52.972;6.482;2023-07-30T13:55:06;11.13;;;1.65;;
57217;SDS011;43078;52.972;6.482;2023-07-30T13:57:34;7.45;;;1.67;;
57217;SDS011;43078;52.972;6.482;2023-07-30T14:00:06;7.50;;;1.48;;
57217;SDS011;43078;52.972;6.482;2023-07-30T14:02:35;12.93;;;2.00;;
57217;SDS011;43078;52.972;6.482;2023-07-30T14:05:01;10.95;;;1.65;;
57217;SDS011;43078;52.972;6.482;2023-07-30T14:07:27;11.75;;;2.05;;
57217;SDS011;43078;52.972;6.482;2023-07-30T14:09:53;10.02;;;1.88;;
57217;SDS011;43078;52.972;6.482;2023-07-30T14:12:18;8.43;;;1.58;;
57217;SDS011;43078;52.972;6.482;2023-07-30T14:14:44;7.20;;;1.55;;
57217;SDS011;43078;52.972;6.482;2023-07-30T14:17:09;8.90;;;1.50;;
57217;SDS011;43078;52.972;6.482;2023-07-30T14:19:35;8.48;;;1.52;;
57217;SDS011;43078;52.972;6.482;2023-07-30T14:22:01;7.32;;;1.48;;
57217;SDS011;43078;52.972;6.482;2023-07-30T14:24:27;6.50;;;1.25;;
57217;SDS011;43078;52.972;6.482;2023-07-30T14:26:53;9.77;;;1.60;;
57217;SDS011;43078;52.972;6.482;2023-07-30T14:29:18;11.00;;;1.95;;
57217;SDS011;43078;52.972;6.482;2023-07-30T14:31:44;10.15;;;1.70;;
57217;SDS011;43078;52.972;6.482;2023-07-30T14:34:10;9.98;;;1.70;;
57217;SDS011;43078;52.972;6.482;2023-07-30T14:36:35;7.05;;;1.48;;
57217;SDS011;43078;52.972;6.482;2023-07-30T14:39:01;10.18;;;1.50;;
57217;SDS011;43078;52.972;6.482;2023-07-30T14:41:27;9.60;;;1.50;;
57217;SDS011;43078;52.972;6.482;2023-07-30T14:43:52;7.65;;;1.42;;
57217;SDS011;43078;52.972;6.482;2023-07-30T14:46:18;4.72;;;1.05;;
57217;SDS011;43078;52.972;6.482;2023-07-30T14:48:43;6.72;;;1.50;;